Flight Track Log - Related Links

Times and Time Zones

All times are in EDT time to prevent confusion due to time zone crossing. See the FLG3733 flight status page for this flight to view local times or setup timezone preferences in your user account.

Time Position Orientation Groundspeed Altitude Reporting Facility
EDT Latitude Longitude Course Direction KTS MPH feet Rate Location/Type
Sat 02:23:06 PM 42.2397 -83.3319 30° Northeast 173 199 1,800  Level Cleveland Center
Sat 02:24:14 PM 42.2908 -83.2919 29° Northeast 209 241 4,700 2,326 Climbing Cleveland Center
Sat 02:25:15 PM 42.3544 -83.2442 75° East 267 307 6,800 2,170 Climbing Cleveland Center
Sat 02:25:48 PM 42.3639 -83.1967 105° East 264 304 8,100 2,065 Climbing Cleveland Center
Sat 02:26:48 PM 42.3431 -83.0947 108° East 275 316 10,000 950 Climbing Cleveland Center
Sat 02:27:48 PM 42.3164 -82.9814 103° East 294 338 10,000 500 Level Cleveland Center
Sat 02:28:48 PM 42.2958 -82.8653 77° East 310 357 11,000 1,350 Climbing Cleveland Center
Sat 02:29:48 PM 42.3169 -82.7397 76° East 317 365 12,700 1,750 Climbing Cleveland Center
Sat 02:30:48 PM 42.3403 -82.6086 79° East 342 394 14,500 1,650 Climbing Cleveland Center
Sat 02:31:48 PM 42.3614 -82.4658 91° East 373 429 16,000 1,300 Climbing Cleveland Center
Sat 02:32:48 PM 42.3594 -82.3169 92° East 389 448 17,100 1,050 Climbing Cleveland Center
Sat 02:33:48 PM 42.3553 -82.1764 93° East 406 467 18,100 1,300 Climbing Cleveland Center
Sat 02:34:48 PM 42.3492 -82.0019 93° East 422 486 19,700 1,250 Climbing Cleveland Center
Sat 02:35:48 PM 42.3428 -81.8472 93° East 429 494 20,600 850 Climbing Cleveland Center
Sat 02:36:48 PM 42.3361 -81.6814 94° East 443 510 21,400 700 Climbing Cleveland Center
Sat 02:37:48 PM 42.3272 -81.5100 94° East 455 524 22,000 600 Climbing Cleveland Center
Sat 02:38:48 PM 42.3181 -81.3300 94° East 471 542 22,600 600 Climbing Cleveland Center
Sat 02:39:48 PM 42.3086 -81.1503 94° East 478 550 23,200 850 Climbing Cleveland Center
Sat 02:40:48 PM 42.2992 -80.9508 94° East 485 558 24,300 1,150 Climbing Cleveland Center
Sat 02:41:48 PM 42.2892 -80.7683 94° East 482 555 25,500 900 Climbing Cleveland Center
Sat 02:42:48 PM 42.2789 -80.5917 97° East 475 547 26,100 600 Climbing Cleveland Center
Sat 02:43:48 PM 42.2619 -80.4092 103° East 474 545 26,700 450 Climbing Cleveland Center
Sat 02:44:48 PM 42.2303 -80.2300 103° East 480 552 27,000 150 Climbing Cleveland Center
Sat 02:45:48 PM 42.1983 -80.0450 93° East 495 570 27,000  Level Cleveland Center
Sat 02:46:48 PM 42.1914 -79.8769 90° East 500 575 27,000  Level Cleveland Center
Sat 02:47:48 PM 42.1919 -79.6808 90° East 509 586 27,000  Level Cleveland Center
Sat 02:48:48 PM 42.1925 -79.4847 91° East 515 593 27,000  Level Cleveland Center
Sat 02:49:48 PM 42.1903 -79.2856 89° East 515 593 27,000  Level Cleveland Center
Sat 02:50:48 PM 42.1919 -79.0867 79° East 515 593 27,000  Level Cleveland Center
Sat 02:51:48 PM 42.2206 -78.8925 81° East 521 600 27,000  Level Cleveland Center
Sat 02:52:48 PM 42.2447 -78.6956 81° East 521 600 27,000  Level Cleveland Center
Sat 02:53:48 PM 42.2703 -78.4869 80° East 528 608 27,000  Level Cleveland Center
Sat 02:54:48 PM 42.2956 -78.2897 81° East 523 602 27,000  Level Cleveland Center
Sat 02:55:48 PM 42.3189 -78.0978 81° East 522 601 27,000  Level Cleveland Center
Sat 02:56:48 PM 42.3414 -77.9003 81° East 522 601 27,000  Level Cleveland Center
Sat 02:57:48 PM 42.3639 -77.7056 81° East 528 608 27,000  Level Cleveland Center
Sat 02:58:48 PM 42.3858 -77.5078 81° East 528 608 27,000  Level Cleveland Center
Sat 02:59:48 PM 42.4094 -77.3069 82° East 528 608 27,000  Level Cleveland Center
Sat 03:01:27 PM 42.4450 -76.9792 81° East 551 634 27,000  Level Boston Center
Sat 03:02:27 PM 42.4678 -76.7753 81° East 551 634 27,000  Level Boston Center
Sat 03:03:27 PM 42.4897 -76.5767 82° East 539 620 27,000  Level Boston Center
Sat 03:04:27 PM 42.5117 -76.3725 82° East 539 620 27,000  Level Boston Center
Sat 03:05:27 PM 42.5300 -76.1933 82° East 539 620 27,000  Level Boston Center
Sat 03:06:27 PM 42.5511 -75.9917 83° East 539 620 27,000 -50 Level Boston Center
Sat 03:07:27 PM 42.5697 -75.7897 89° East 539 620 26,900 -1,250 Descending Boston Center
Sat 03:08:27 PM 42.5722 -75.5586 86° East 539 620 24,500 -2,550 Descending Boston Center
Sat 03:09:27 PM 42.5817 -75.3672 87° East 539 620 21,800 -2,750 Descending Boston Center
Sat 03:10:27 PM 42.5881 -75.1842 88° East 513 590 19,000 -2,542 Descending Boston Center
Sat 03:11:25 PM 42.5922 -75.0178 85° East 466 536 16,800 -2,250 Descending Boston Center
Sat 03:12:19 PM 42.6014 -74.8744 85° East 415 478 14,800 -2,087 Descending Boston Center
Sat 03:13:20 PM 42.6108 -74.7281 85° East 376 433 12,800 -1,835 Descending Boston Center
Sat 03:14:20 PM 42.6197 -74.5900 86° East 367 422 11,100 -992 Descending Boston Center
Sat 03:15:21 PM 42.6264 -74.4547 86° East 361 415 10,800 -850 Descending Boston Center
Sat 03:16:27 PM 42.6328 -74.3197 89° East 332 382 9,300 -1,571 Descending Boston Center
Sat 03:17:27 PM 42.6347 -74.2067 87° East 298 343 7,500 -1,700 Descending Boston Center
Sat 03:18:27 PM 42.6383 -74.0939 87° East 292 336 5,900 -1,600 Descending Boston Center
Sat 03:19:27 PM 42.6419 -73.9953 86° East 278 320 4,300 -950 Descending Boston Center
Sat 03:20:27 PM 42.6472 -73.9022 83° East 259 298 4,000 -200 Descending Boston Center
Sat 03:21:27 PM 42.6547 -73.8178 89° East 234 269 3,900 -500 Descending Boston Center
Sat 03:22:27 PM 42.6556 -73.7472 87° East 211 243 3,000 -600 Descending Boston Center
Sat 03:23:27 PM 42.6583 -73.6739 340° North 204 235 2,700 -727 Descending Boston Center
Sat 03:24:39 PM 42.7372 -73.7122 298° West 148 170 1,400 -714 Descending Boston Center
Sat 03:25:33 PM 42.7494 -73.7436 298° West 139 160 1,200 -222 Descending Boston Center

Login

Don't have an account? Register now (free) for customized features, flight alerts, and more!